This is the latest recevied weather packets stored in our database for station/object EA3CH. If no packets are shown the sender has not sent any weather packets the latest 10 day(s).
| Time | Temp. | Humidity | Pressure | Rain* | Wind** | Luminosity | Snow |
|---|---|---|---|---|---|---|---|
| 1788574506 | 21.11° C | 69% | 1022.5 hPa | 0 mm | - | 0 W/m² | - |
| 1788573606 | 21.11° C | 69% | 1022.6 hPa | 0 mm | - | 0 W/m² | - |
| 1788571806 | 21.67° C | 67% | 1022.7 hPa | 0 mm | - | 0 W/m² | - |
| 1788567306 | 22.78° C | 66% | 1022.9 hPa | 0 mm | - | 0 W/m² | - |
| 1788564605 | 22.22° C | 66% | 1023 hPa | 0 mm | - | 0 W/m² | - |
| 1788563705 | 22.78° C | 67% | 1023 hPa | 0 mm | - | 0 W/m² | - |
| 1788559206 | 24.44° C | 56% | 1023 hPa | 0 mm | - | 0 W/m² | - |
| 1788556505 | 25.56° C | 49% | 1022.9 hPa | 0 mm | - | 0 W/m² | - |
| 1788555605 | 26.11° C | 49% | 1023.1 hPa | 0 mm | - | 0 W/m² | - |
| 1788554705 | 26.11° C | 48% | 1023 hPa | 0 mm | - | 0 W/m² | - |
| 1788552905 | 25.56° C | 52% | 1022.9 hPa | 0 mm | - | 0 W/m² | - |
| 1788550205 | 26.11° C | 66% | 1022.8 hPa | 0 mm | - | 0 W/m² | - |
| 1788548405 | 26.67° C | 65% | 1022.4 hPa | 0 mm | - | 0 W/m² | - |
| 1788544805 | 28.33° C | 59% | 1021.8 hPa | 0 mm | - | 0 W/m² | - |
| 1788543905 | 28.89° C | 60% | 1021.6 hPa | 0 mm | - | 0 W/m² | - |
| 1788539407 | 30.56° C | 56% | 1021.1 hPa | 0 mm | - | 0 W/m² | - |
| 1788537607 | 32.78° C | 49% | 1021 hPa | 0 mm | - | 0 W/m² | - |
| 1788536707 | 32.78° C | 47% | 1020.9 hPa | 0 mm | - | 0 W/m² | - |
| 1788534906 | 33.89° C | 44% | 1021 hPa | 0 mm | - | 0 W/m² | - |
| 1788532207 | 34.44° C | 44% | 1021.1 hPa | 0 mm | - | 0 W/m² | - |
| 1788530406 | 36.67° C | 20% | 1021.2 hPa | 0 mm | - | 0 W/m² | - |
| 1788529506 | 36.67° C | 20% | 1021.1 hPa | 0 mm | - | 0 W/m² | - |
| 1788528606 | 36.11° C | 21% | 1021.1 hPa | 0 mm | - | 0 W/m² | - |
| 1788527706 | 36.11° C | 22% | 1021.3 hPa | 0 mm | - | 0 W/m² | - |
| 1788524106 | 35° C | 26% | 1021.7 hPa | 0 mm | - | 0 W/m² | - |
* Rain latest hour (hover to see other rain measurements)
** Current wind speed in m/s (hover to see current wind gust speed)